Aérodrome :
LOGIN :

S'inscrire | Disclaimer

   EN    FR    IT 

 










Légende :    VFR   VFR Marginal   IFR   IFR Intensif   IFR Très Intensif
Visi : 
Plafond : 
>= 8 km
>= 3000ft
5 à 8 km
1000 à 3000 ft
1500m à 5 km
500 à 1000 ft
800 à 1500m
200 à 500 ft
< 800m
< 200 ft
Symboles :   Orages  Brouillard  Fortes neiges  Fortes précipitations  Vent > 20 kt
SIGMETs :   Divers  Orages  Givrage  Turbulence  Onde Orograph.  Cendres Volcan.







- Altitude de l'aérodrome : 1197 ft
- Code IATA : SPM


ETAD - Spangdahlem Ab

DERNIER METAR :
  • 210256Z AUTO 01004KT 9999 CLR M06/M09 A3011 RMK AO2 SLP216 T10621089 51004 $

METARs EXPIRÉS :
  • 210156Z AUTO 04007KT 9999 CLR M06/M08 A3011 RMK AO2 SLP214 T10561084 $
  • 210056Z AUTO 04005KT 9999 CLR M06/M09 A3011 RMK AO2 SLP216 T10611087 $

TAF TAF ETAD
Valide du 20 à 19h jusqu'au 22 à 01h UTC


201855Z 2019/2201 06006KT 9999 SKC QNH3001INS
BECMG 2020/2021 07006KT 9999 SCT020 QNH3005INS
TEMPO 2106/2108 BKN015
BECMG 2111/2112 VRB03KT 9999 SCT020 QNH3007INS
BECMG 2122/2123 22006KT 9999 FEW008 BKN015 QNH2999INS TXM02/2114Z TNM07/2106Z LAST NO AMDS AFT 2019 NEXT 2105
Pas de NOTAMs connus pour ce terrain.



MET'MAP, la Météo Aéronautique d'un coup d'oeil ! - Copyright ORBIFLY Décembre 2007 - Disclaimer

ORBIFLY MET'MAP TEAM :

Programmation & Développement : Alexandra Zaïnal
Conception & Développement : Baudouin d'Aumeries
Co-Programmation & Développement : Marc-Olivier Méhu
Soutien technique & logistique : Manuel Goepfert

Contact : metmap@orbifly.com




SOURCES & CREDITS :

   NOAA